sensor_id;sensor_type;location;lat;lon;timestamp;P1;durP1;ratioP1;P2;durP2;ratioP2
18286;SDS011;9269;50.838;12.094;2023-06-14T00:00:48;4.83;;;4.43;;
18286;SDS011;9269;50.838;12.094;2023-06-14T00:03:16;4.90;;;4.40;;
18286;SDS011;9269;50.838;12.094;2023-06-14T00:05:45;4.90;;;4.40;;
18286;SDS011;9269;50.838;12.094;2023-06-14T00:08:14;5.00;;;4.60;;
18286;SDS011;9269;50.838;12.094;2023-06-14T00:10:42;4.50;;;4.10;;
18286;SDS011;9269;50.838;12.094;2023-06-14T00:13:11;5.00;;;4.50;;
18286;SDS011;9269;50.838;12.094;2023-06-14T00:15:39;5.10;;;4.30;;
18286;SDS011;9269;50.838;12.094;2023-06-14T00:18:10;7.20;;;4.73;;
18286;SDS011;9269;50.838;12.094;2023-06-14T00:20:39;6.27;;;4.63;;
18286;SDS011;9269;50.838;12.094;2023-06-14T00:23:09;4.77;;;4.17;;
18286;SDS011;9269;50.838;12.094;2023-06-14T00:25:37;4.53;;;4.13;;
18286;SDS011;9269;50.838;12.094;2023-06-14T00:28:07;5.30;;;4.80;;
18286;SDS011;9269;50.838;12.094;2023-06-14T00:30:36;5.53;;;4.37;;
18286;SDS011;9269;50.838;12.094;2023-06-14T00:33:05;5.10;;;4.70;;
18286;SDS011;9269;50.838;12.094;2023-06-14T00:35:35;5.23;;;4.53;;
18286;SDS011;9269;50.838;12.094;2023-06-14T00:38:04;5.07;;;4.67;;
18286;SDS011;9269;50.838;12.094;2023-06-14T00:40:33;5.60;;;4.60;;
18286;SDS011;9269;50.838;12.094;2023-06-14T00:43:02;4.53;;;4.17;;
18286;SDS011;9269;50.838;12.094;2023-06-14T00:45:31;4.43;;;4.03;;
18286;SDS011;9269;50.838;12.094;2023-06-14T00:48:02;4.90;;;4.47;;
18286;SDS011;9269;50.838;12.094;2023-06-14T00:50:33;5.73;;;4.57;;
18286;SDS011;9269;50.838;12.094;2023-06-14T00:53:04;5.33;;;4.70;;
18286;SDS011;9269;50.838;12.094;2023-06-14T00:55:33;6.77;;;5.10;;
18286;SDS011;9269;50.838;12.094;2023-06-14T00:58:02;6.53;;;4.93;;
18286;SDS011;9269;50.838;12.094;2023-06-14T01:00:31;5.00;;;4.37;;
18286;SDS011;9269;50.838;12.094;2023-06-14T01:03:00;4.93;;;4.43;;
18286;SDS011;9269;50.838;12.094;2023-06-14T01:05:29;4.90;;;4.40;;
18286;SDS011;9269;50.838;12.094;2023-06-14T01:08:11;5.57;;;4.87;;
18286;SDS011;9269;50.838;12.094;2023-06-14T01:10:47;5.00;;;4.60;;
18286;SDS011;9269;50.838;12.094;2023-06-14T01:13:21;4.80;;;4.33;;
18286;SDS011;9269;50.838;12.094;2023-06-14T01:15:55;5.07;;;4.60;;
18286;SDS011;9269;50.838;12.094;2023-06-14T01:18:24;7.57;;;4.80;;
18286;SDS011;9269;50.838;12.094;2023-06-14T01:20:56;4.43;;;4.03;;
18286;SDS011;9269;50.838;12.094;2023-06-14T01:23:26;4.60;;;4.20;;
18286;SDS011;9269;50.838;12.094;2023-06-14T01:26:00;4.87;;;4.40;;
18286;SDS011;9269;50.838;12.094;2023-06-14T01:28:30;5.27;;;4.40;;
18286;SDS011;9269;50.838;12.094;2023-06-14T01:31:01;4.60;;;4.20;;
18286;SDS011;9269;50.838;12.094;2023-06-14T01:33:31;4.67;;;4.27;;
18286;SDS011;9269;50.838;12.094;2023-06-14T01:36:01;4.40;;;4.10;;
18286;SDS011;9269;50.838;12.094;2023-06-14T01:38:34;6.17;;;5.00;;
18286;SDS011;9269;50.838;12.094;2023-06-14T01:41:04;5.00;;;4.50;;
18286;SDS011;9269;50.838;12.094;2023-06-14T01:43:35;6.93;;;4.43;;
18286;SDS011;9269;50.838;12.094;2023-06-14T01:46:04;4.87;;;4.37;;
18286;SDS011;9269;50.838;12.094;2023-06-14T01:48:34;4.97;;;4.57;;
18286;SDS011;9269;50.838;12.094;2023-06-14T01:51:02;5.97;;;5.13;;
18286;SDS011;9269;50.838;12.094;2023-06-14T01:53:31;5.57;;;5.07;;
18286;SDS011;9269;50.838;12.094;2023-06-14T01:56:01;5.23;;;4.77;;
18286;SDS011;9269;50.838;12.094;2023-06-14T01:58:30;5.30;;;4.67;;
18286;SDS011;9269;50.838;12.094;2023-06-14T02:00:59;6.33;;;4.70;;
18286;SDS011;9269;50.838;12.094;2023-06-14T02:03:29;5.00;;;4.50;;
18286;SDS011;9269;50.838;12.094;2023-06-14T02:05:58;5.67;;;4.20;;
18286;SDS011;9269;50.838;12.094;2023-06-14T02:08:27;5.33;;;4.83;;
18286;SDS011;9269;50.838;12.094;2023-06-14T02:10:55;5.17;;;4.67;;
18286;SDS011;9269;50.838;12.094;2023-06-14T02:13:25;6.07;;;5.47;;
18286;SDS011;9269;50.838;12.094;2023-06-14T02:15:53;4.70;;;4.33;;
18286;SDS011;9269;50.838;12.094;2023-06-14T02:18:22;8.40;;;4.93;;
18286;SDS011;9269;50.838;12.094;2023-06-14T02:20:51;4.63;;;4.23;;
18286;SDS011;9269;50.838;12.094;2023-06-14T02:23:20;4.70;;;4.30;;
18286;SDS011;9269;50.838;12.094;2023-06-14T02:25:48;4.63;;;4.23;;
18286;SDS011;9269;50.838;12.094;2023-06-14T02:28:18;5.03;;;4.53;;
18286;SDS011;9269;50.838;12.094;2023-06-14T02:30:48;4.90;;;4.50;;
18286;SDS011;9269;50.838;12.094;2023-06-14T02:33:18;5.00;;;4.60;;
18286;SDS011;9269;50.838;12.094;2023-06-14T02:35:47;5.77;;;4.77;;
18286;SDS011;9269;50.838;12.094;2023-06-14T02:38:19;6.30;;;4.30;;
18286;SDS011;9269;50.838;12.094;2023-06-14T02:40:49;5.37;;;4.77;;
18286;SDS011;9269;50.838;12.094;2023-06-14T02:43:17;5.30;;;4.63;;
18286;SDS011;9269;50.838;12.094;2023-06-14T02:45:46;4.73;;;4.33;;
18286;SDS011;9269;50.838;12.094;2023-06-14T02:48:16;5.97;;;4.70;;
18286;SDS011;9269;50.838;12.094;2023-06-14T02:50:45;6.90;;;4.50;;
18286;SDS011;9269;50.838;12.094;2023-06-14T02:53:13;5.70;;;5.20;;
18286;SDS011;9269;50.838;12.094;2023-06-14T02:55:42;5.33;;;4.83;;
18286;SDS011;9269;50.838;12.094;2023-06-14T02:58:11;5.73;;;4.90;;
18286;SDS011;9269;50.838;12.094;2023-06-14T03:00:39;6.00;;;5.17;;
18286;SDS011;9269;50.838;12.094;2023-06-14T03:03:10;4.93;;;4.03;;
18286;SDS011;9269;50.838;12.094;2023-06-14T03:05:43;4.87;;;4.40;;
18286;SDS011;9269;50.838;12.094;2023-06-14T03:08:14;7.07;;;4.93;;
18286;SDS011;9269;50.838;12.094;2023-06-14T03:10:46;4.97;;;4.57;;
18286;SDS011;9269;50.838;12.094;2023-06-14T03:13:15;4.63;;;4.23;;
18286;SDS011;9269;50.838;12.094;2023-06-14T03:15:48;6.47;;;4.70;;
18286;SDS011;9269;50.838;12.094;2023-06-14T03:18:19;5.20;;;4.43;;
18286;SDS011;9269;50.838;12.094;2023-06-14T03:20:53;5.37;;;4.87;;
18286;SDS011;9269;50.838;12.094;2023-06-14T03:23:24;4.83;;;4.43;;
18286;SDS011;9269;50.838;12.094;2023-06-14T03:25:53;5.40;;;4.77;;
18286;SDS011;9269;50.838;12.094;2023-06-14T03:28:21;5.60;;;4.63;;
18286;SDS011;9269;50.838;12.094;2023-06-14T03:30:50;4.77;;;4.37;;
18286;SDS011;9269;50.838;12.094;2023-06-14T03:33:19;5.63;;;5.03;;
18286;SDS011;9269;50.838;12.094;2023-06-14T03:35:48;5.30;;;4.77;;
18286;SDS011;9269;50.838;12.094;2023-06-14T03:38:17;4.83;;;4.43;;
18286;SDS011;9269;50.838;12.094;2023-06-14T03:40:46;5.10;;;4.57;;
18286;SDS011;9269;50.838;12.094;2023-06-14T03:43:14;6.07;;;4.90;;
18286;SDS011;9269;50.838;12.094;2023-06-14T03:45:43;7.70;;;5.03;;
18286;SDS011;9269;50.838;12.094;2023-06-14T03:48:12;4.83;;;4.27;;
18286;SDS011;9269;50.838;12.094;2023-06-14T03:50:43;4.90;;;4.50;;
18286;SDS011;9269;50.838;12.094;2023-06-14T03:53:12;5.17;;;4.67;;
18286;SDS011;9269;50.838;12.094;2023-06-14T03:55:41;5.10;;;4.50;;
18286;SDS011;9269;50.838;12.094;2023-06-14T03:58:13;5.00;;;4.60;;
18286;SDS011;9269;50.838;12.094;2023-06-14T04:00:42;5.37;;;4.60;;
18286;SDS011;9269;50.838;12.094;2023-06-14T04:03:12;5.00;;;4.10;;
18286;SDS011;9269;50.838;12.094;2023-06-14T04:05:44;6.20;;;4.77;;
18286;SDS011;9269;50.838;12.094;2023-06-14T04:08:16;4.77;;;4.37;;
18286;SDS011;9269;50.838;12.094;2023-06-14T04:10:46;5.10;;;4.60;;
18286;SDS011;9269;50.838;12.094;2023-06-14T04:13:15;6.30;;;4.67;;
18286;SDS011;9269;50.838;12.094;2023-06-14T04:15:44;5.67;;;4.30;;
18286;SDS011;9269;50.838;12.094;2023-06-14T04:18:13;5.97;;;4.43;;
18286;SDS011;9269;50.838;12.094;2023-06-14T04:20:44;4.93;;;4.50;;
18286;SDS011;9269;50.838;12.094;2023-06-14T04:23:13;5.30;;;4.90;;
18286;SDS011;9269;50.838;12.094;2023-06-14T04:25:41;6.07;;;4.57;;
18286;SDS011;9269;50.838;12.094;2023-06-14T04:28:12;5.03;;;4.47;;
18286;SDS011;9269;50.838;12.094;2023-06-14T04:30:42;4.87;;;4.37;;
18286;SDS011;9269;50.838;12.094;2023-06-14T04:33:11;5.17;;;4.63;;
18286;SDS011;9269;50.838;12.094;2023-06-14T04:35:40;4.70;;;4.20;;
18286;SDS011;9269;50.838;12.094;2023-06-14T04:38:10;8.83;;;4.77;;
18286;SDS011;9269;50.838;12.094;2023-06-14T04:40:39;5.63;;;4.27;;
18286;SDS011;9269;50.838;12.094;2023-06-14T04:43:10;6.03;;;4.60;;
18286;SDS011;9269;50.838;12.094;2023-06-14T04:45:39;4.60;;;4.30;;
18286;SDS011;9269;50.838;12.094;2023-06-14T04:48:12;4.90;;;4.40;;
18286;SDS011;9269;50.838;12.094;2023-06-14T04:50:40;5.27;;;4.67;;
18286;SDS011;9269;50.838;12.094;2023-06-14T04:53:11;5.40;;;4.90;;
18286;SDS011;9269;50.838;12.094;2023-06-14T04:55:40;5.27;;;4.47;;
18286;SDS011;9269;50.838;12.094;2023-06-14T04:58:11;5.77;;;4.53;;
18286;SDS011;9269;50.838;12.094;2023-06-14T05:00:40;6.07;;;4.40;;
18286;SDS011;9269;50.838;12.094;2023-06-14T05:03:10;4.77;;;4.33;;
18286;SDS011;9269;50.838;12.094;2023-06-14T05:05:40;4.63;;;4.20;;
18286;SDS011;9269;50.838;12.094;2023-06-14T05:08:09;4.57;;;4.13;;
18286;SDS011;9269;50.838;12.094;2023-06-14T05:10:38;4.33;;;3.97;;
18286;SDS011;9269;50.838;12.094;2023-06-14T05:13:07;5.00;;;4.50;;
18286;SDS011;9269;50.838;12.094;2023-06-14T05:15:37;4.77;;;4.20;;
18286;SDS011;9269;50.838;12.094;2023-06-14T05:18:06;4.97;;;4.40;;
18286;SDS011;9269;50.838;12.094;2023-06-14T05:20:36;5.10;;;4.30;;
18286;SDS011;9269;50.838;12.094;2023-06-14T05:23:04;4.67;;;4.27;;
18286;SDS011;9269;50.838;12.094;2023-06-14T05:25:33;5.13;;;4.63;;
18286;SDS011;9269;50.838;12.094;2023-06-14T05:28:03;6.00;;;5.40;;
18286;SDS011;9269;50.838;12.094;2023-06-14T05:30:32;5.50;;;5.00;;
18286;SDS011;9269;50.838;12.094;2023-06-14T05:33:00;4.83;;;4.43;;
18286;SDS011;9269;50.838;12.094;2023-06-14T05:35:28;5.53;;;4.97;;
18286;SDS011;9269;50.838;12.094;2023-06-14T05:37:57;5.00;;;4.40;;
18286;SDS011;9269;50.838;12.094;2023-06-14T05:40:30;4.90;;;4.10;;
18286;SDS011;9269;50.838;12.094;2023-06-14T05:42:58;5.27;;;4.77;;
18286;SDS011;9269;50.838;12.094;2023-06-14T05:45:28;4.50;;;4.10;;
18286;SDS011;9269;50.838;12.094;2023-06-14T05:47:57;4.80;;;4.40;;
18286;SDS011;9269;50.838;12.094;2023-06-14T05:50:25;4.73;;;4.33;;
18286;SDS011;9269;50.838;12.094;2023-06-14T05:52:54;4.90;;;4.40;;
18286;SDS011;9269;50.838;12.094;2023-06-14T05:55:22;4.80;;;4.47;;
18286;SDS011;9269;50.838;12.094;2023-06-14T05:57:51;5.17;;;4.67;;
18286;SDS011;9269;50.838;12.094;2023-06-14T06:00:19;5.27;;;4.70;;
18286;SDS011;9269;50.838;12.094;2023-06-14T06:02:50;5.43;;;4.93;;
18286;SDS011;9269;50.838;12.094;2023-06-14T06:05:19;5.53;;;5.00;;
18286;SDS011;9269;50.838;12.094;2023-06-14T06:07:47;5.60;;;5.00;;
18286;SDS011;9269;50.838;12.094;2023-06-14T06:10:16;5.33;;;4.67;;
18286;SDS011;9269;50.838;12.094;2023-06-14T06:12:50;5.20;;;4.80;;
18286;SDS011;9269;50.838;12.094;2023-06-14T06:15:19;5.30;;;4.80;;
18286;SDS011;9269;50.838;12.094;2023-06-14T06:17:47;6.50;;;5.50;;
18286;SDS011;9269;50.838;12.094;2023-06-14T06:20:24;5.43;;;4.93;;
18286;SDS011;9269;50.838;12.094;2023-06-14T06:22:57;5.67;;;5.10;;
18286;SDS011;9269;50.838;12.094;2023-06-14T06:25:25;5.50;;;5.00;;
18286;SDS011;9269;50.838;12.094;2023-06-14T06:27:55;6.07;;;5.53;;
18286;SDS011;9269;50.838;12.094;2023-06-14T06:30:24;5.63;;;4.97;;
18286;SDS011;9269;50.838;12.094;2023-06-14T06:32:53;5.83;;;5.23;;
18286;SDS011;9269;50.838;12.094;2023-06-14T06:35:24;5.17;;;4.73;;
18286;SDS011;9269;50.838;12.094;2023-06-14T06:37:53;6.17;;;5.67;;
18286;SDS011;9269;50.838;12.094;2023-06-14T06:40:23;5.37;;;4.70;;
18286;SDS011;9269;50.838;12.094;2023-06-14T06:42:52;6.43;;;5.83;;
18286;SDS011;9269;50.838;12.094;2023-06-14T06:45:21;5.80;;;5.30;;
18286;SDS011;9269;50.838;12.094;2023-06-14T06:47:51;5.87;;;5.30;;
18286;SDS011;9269;50.838;12.094;2023-06-14T06:50:20;5.47;;;4.97;;
18286;SDS011;9269;50.838;12.094;2023-06-14T06:52:51;6.23;;;5.70;;
18286;SDS011;9269;50.838;12.094;2023-06-14T06:55:20;5.53;;;5.00;;
18286;SDS011;9269;50.838;12.094;2023-06-14T06:57:49;5.87;;;5.20;;
18286;SDS011;9269;50.838;12.094;2023-06-14T07:00:19;5.53;;;5.03;;
18286;SDS011;9269;50.838;12.094;2023-06-14T07:02:48;5.90;;;5.40;;
18286;SDS011;9269;50.838;12.094;2023-06-14T07:05:18;5.97;;;5.40;;
18286;SDS011;9269;50.838;12.094;2023-06-14T07:07:46;6.00;;;5.40;;
18286;SDS011;9269;50.838;12.094;2023-06-14T07:10:16;6.03;;;5.60;;
18286;SDS011;9269;50.838;12.094;2023-06-14T07:12:45;5.77;;;5.30;;
18286;SDS011;9269;50.838;12.094;2023-06-14T07:15:13;6.50;;;6.00;;
18286;SDS011;9269;50.838;12.094;2023-06-14T07:17:42;5.63;;;5.13;;
18286;SDS011;9269;50.838;12.094;2023-06-14T07:20:11;5.60;;;5.13;;
18286;SDS011;9269;50.838;12.094;2023-06-14T07:22:41;5.37;;;4.87;;
18286;SDS011;9269;50.838;12.094;2023-06-14T07:25:10;5.97;;;5.47;;
18286;SDS011;9269;50.838;12.094;2023-06-14T07:27:44;6.00;;;5.50;;
18286;SDS011;9269;50.838;12.094;2023-06-14T07:30:13;5.40;;;5.00;;
18286;SDS011;9269;50.838;12.094;2023-06-14T07:32:42;5.70;;;5.20;;
18286;SDS011;9269;50.838;12.094;2023-06-14T07:35:10;5.70;;;5.07;;
18286;SDS011;9269;50.838;12.094;2023-06-14T07:37:39;5.77;;;5.33;;
18286;SDS011;9269;50.838;12.094;2023-06-14T07:40:08;6.00;;;5.50;;
18286;SDS011;9269;50.838;12.094;2023-06-14T07:42:38;6.40;;;5.90;;
18286;SDS011;9269;50.838;12.094;2023-06-14T07:45:08;6.07;;;5.57;;
18286;SDS011;9269;50.838;12.094;2023-06-14T07:47:37;6.27;;;5.43;;
18286;SDS011;9269;50.838;12.094;2023-06-14T07:50:07;6.10;;;5.60;;
18286;SDS011;9269;50.838;12.094;2023-06-14T07:52:36;7.37;;;5.63;;
18286;SDS011;9269;50.838;12.094;2023-06-14T07:55:05;6.37;;;5.20;;
18286;SDS011;9269;50.838;12.094;2023-06-14T07:57:34;6.30;;;5.60;;
18286;SDS011;9269;50.838;12.094;2023-06-14T08:00:04;5.77;;;5.27;;
18286;SDS011;9269;50.838;12.094;2023-06-14T08:02:35;5.20;;;4.80;;
18286;SDS011;9269;50.838;12.094;2023-06-14T08:05:04;5.37;;;4.97;;
18286;SDS011;9269;50.838;12.094;2023-06-14T08:07:32;5.33;;;4.77;;
18286;SDS011;9269;50.838;12.094;2023-06-14T08:10:01;5.73;;;5.30;;
18286;SDS011;9269;50.838;12.094;2023-06-14T08:12:31;5.50;;;5.00;;
18286;SDS011;9269;50.838;12.094;2023-06-14T08:14:59;5.60;;;5.10;;
18286;SDS011;9269;50.838;12.094;2023-06-14T08:17:36;5.57;;;5.07;;
18286;SDS011;9269;50.838;12.094;2023-06-14T08:20:04;5.30;;;4.87;;
18286;SDS011;9269;50.838;12.094;2023-06-14T08:22:34;6.73;;;4.67;;
18286;SDS011;9269;50.838;12.094;2023-06-14T08:25:04;6.20;;;5.70;;
18286;SDS011;9269;50.838;12.094;2023-06-14T08:27:33;5.63;;;5.20;;
18286;SDS011;9269;50.838;12.094;2023-06-14T08:30:03;5.70;;;5.23;;
18286;SDS011;9269;50.838;12.094;2023-06-14T08:32:36;6.00;;;5.40;;
18286;SDS011;9269;50.838;12.094;2023-06-14T08:35:05;5.03;;;4.53;;
18286;SDS011;9269;50.838;12.094;2023-06-14T08:37:37;5.87;;;5.37;;
18286;SDS011;9269;50.838;12.094;2023-06-14T08:40:11;5.83;;;4.90;;
18286;SDS011;9269;50.838;12.094;2023-06-14T08:42:47;5.00;;;4.60;;
18286;SDS011;9269;50.838;12.094;2023-06-14T08:45:18;5.97;;;5.37;;
18286;SDS011;9269;50.838;12.094;2023-06-14T08:47:52;5.47;;;5.07;;
18286;SDS011;9269;50.838;12.094;2023-06-14T08:50:25;5.60;;;5.03;;
18286;SDS011;9269;50.838;12.094;2023-06-14T08:52:57;5.80;;;5.30;;
18286;SDS011;9269;50.838;12.094;2023-06-14T08:55:29;5.00;;;4.57;;
18286;SDS011;9269;50.838;12.094;2023-06-14T08:58:03;6.10;;;5.53;;
18286;SDS011;9269;50.838;12.094;2023-06-14T09:00:33;5.03;;;4.63;;
18286;SDS011;9269;50.838;12.094;2023-06-14T09:03:03;5.43;;;5.10;;
18286;SDS011;9269;50.838;12.094;2023-06-14T09:05:36;5.00;;;4.50;;
18286;SDS011;9269;50.838;12.094;2023-06-14T09:08:15;5.63;;;5.13;;
18286;SDS011;9269;50.838;12.094;2023-06-14T09:10:46;4.83;;;4.30;;
18286;SDS011;9269;50.838;12.094;2023-06-14T09:13:14;6.37;;;3.90;;
18286;SDS011;9269;50.838;12.094;2023-06-14T09:15:44;5.00;;;4.60;;
18286;SDS011;9269;50.838;12.094;2023-06-14T09:18:14;4.57;;;4.20;;
18286;SDS011;9269;50.838;12.094;2023-06-14T09:20:43;7.00;;;4.00;;
18286;SDS011;9269;50.838;12.094;2023-06-14T09:23:14;5.53;;;4.50;;
18286;SDS011;9269;50.838;12.094;2023-06-14T09:25:49;5.77;;;4.60;;
18286;SDS011;9269;50.838;12.094;2023-06-14T09:28:18;4.63;;;4.23;;
18286;SDS011;9269;50.838;12.094;2023-06-14T09:30:49;5.43;;;4.83;;
18286;SDS011;9269;50.838;12.094;2023-06-14T09:33:19;4.50;;;4.10;;
18286;SDS011;9269;50.838;12.094;2023-06-14T09:35:50;4.60;;;4.07;;
18286;SDS011;9269;50.838;12.094;2023-06-14T09:38:19;3.90;;;3.60;;
18286;SDS011;9269;50.838;12.094;2023-06-14T09:40:49;4.37;;;4.00;;
18286;SDS011;9269;50.838;12.094;2023-06-14T09:43:17;4.40;;;4.10;;
18286;SDS011;9269;50.838;12.094;2023-06-14T09:45:47;4.57;;;4.13;;
18286;SDS011;9269;50.838;12.094;2023-06-14T09:48:16;4.40;;;4.10;;
18286;SDS011;9269;50.838;12.094;2023-06-14T09:50:46;8.17;;;4.27;;
18286;SDS011;9269;50.838;12.094;2023-06-14T09:53:19;4.83;;;3.73;;
18286;SDS011;9269;50.838;12.094;2023-06-14T09:55:49;3.90;;;3.60;;
18286;SDS011;9269;50.838;12.094;2023-06-14T09:58:20;4.70;;;3.87;;
18286;SDS011;9269;50.838;12.094;2023-06-14T10:00:50;4.73;;;4.27;;
18286;SDS011;9269;50.838;12.094;2023-06-14T10:03:23;4.90;;;4.50;;
18286;SDS011;9269;50.838;12.094;2023-06-14T10:06:09;4.37;;;3.97;;
18286;SDS011;9269;50.838;12.094;2023-06-14T10:08:38;3.77;;;3.47;;
18286;SDS011;9269;50.838;12.094;2023-06-14T10:11:08;4.10;;;3.80;;
18286;SDS011;9269;50.838;12.094;2023-06-14T10:13:38;3.93;;;3.73;;
18286;SDS011;9269;50.838;12.094;2023-06-14T10:16:08;3.87;;;3.57;;
18286;SDS011;9269;50.838;12.094;2023-06-14T10:18:45;5.33;;;4.03;;
18286;SDS011;9269;50.838;12.094;2023-06-14T10:21:21;4.13;;;3.83;;
18286;SDS011;9269;50.838;12.094;2023-06-14T10:23:56;3.60;;;3.27;;
18286;SDS011;9269;50.838;12.094;2023-06-14T10:26:28;5.20;;;4.10;;
18286;SDS011;9269;50.838;12.094;2023-06-14T10:28:57;4.00;;;3.70;;
18286;SDS011;9269;50.838;12.094;2023-06-14T10:31:41;4.70;;;4.20;;
18286;SDS011;9269;50.838;12.094;2023-06-14T10:34:12;4.40;;;3.57;;
18286;SDS011;9269;50.838;12.094;2023-06-14T10:37:00;3.73;;;3.53;;
18286;SDS011;9269;50.838;12.094;2023-06-14T10:39:31;4.13;;;3.77;;
18286;SDS011;9269;50.838;12.094;2023-06-14T10:42:06;4.90;;;3.80;;
18286;SDS011;9269;50.838;12.094;2023-06-14T10:44:39;4.97;;;3.93;;
18286;SDS011;9269;50.838;12.094;2023-06-14T10:47:09;4.77;;;3.90;;
18286;SDS011;9269;50.838;12.094;2023-06-14T10:49:49;4.90;;;4.40;;
18286;SDS011;9269;50.838;12.094;2023-06-14T10:52:21;4.57;;;4.17;;
18286;SDS011;9269;50.838;12.094;2023-06-14T10:55:01;5.43;;;4.03;;
18286;SDS011;9269;50.838;12.094;2023-06-14T10:57:33;4.63;;;4.23;;
18286;SDS011;9269;50.838;12.094;2023-06-14T11:00:06;4.30;;;4.00;;
18286;SDS011;9269;50.838;12.094;2023-06-14T11:03:11;4.10;;;3.80;;
18286;SDS011;9269;50.838;12.094;2023-06-14T11:06:12;4.40;;;4.10;;
18286;SDS011;9269;50.838;12.094;2023-06-14T11:08:51;4.33;;;3.87;;
18286;SDS011;9269;50.838;12.094;2023-06-14T11:11:41;4.63;;;4.23;;
18286;SDS011;9269;50.838;12.094;2023-06-14T11:14:11;4.77;;;4.30;;
18286;SDS011;9269;50.838;12.094;2023-06-14T11:16:40;4.57;;;4.27;;
18286;SDS011;9269;50.838;12.094;2023-06-14T11:19:09;4.23;;;3.80;;
18286;SDS011;9269;50.838;12.094;2023-06-14T11:21:40;4.87;;;4.40;;
18286;SDS011;9269;50.838;12.094;2023-06-14T11:24:12;4.40;;;4.00;;
18286;SDS011;9269;50.838;12.094;2023-06-14T11:26:40;4.60;;;4.17;;
18286;SDS011;9269;50.838;12.094;2023-06-14T11:29:09;5.30;;;3.90;;
18286;SDS011;9269;50.838;12.094;2023-06-14T11:31:37;4.50;;;4.10;;
18286;SDS011;9269;50.838;12.094;2023-06-14T11:34:11;4.63;;;3.80;;
18286;SDS011;9269;50.838;12.094;2023-06-14T11:36:42;5.07;;;4.63;;
18286;SDS011;9269;50.838;12.094;2023-06-14T11:39:10;4.27;;;3.90;;
18286;SDS011;9269;50.838;12.094;2023-06-14T11:41:40;5.27;;;4.10;;
18286;SDS011;9269;50.838;12.094;2023-06-14T11:44:10;4.30;;;3.90;;
18286;SDS011;9269;50.838;12.094;2023-06-14T11:46:54;4.50;;;4.10;;
18286;SDS011;9269;50.838;12.094;2023-06-14T11:49:37;4.13;;;3.83;;
18286;SDS011;9269;50.838;12.094;2023-06-14T11:52:18;4.50;;;4.00;;
18286;SDS011;9269;50.838;12.094;2023-06-14T11:54:47;4.57;;;4.17;;
18286;SDS011;9269;50.838;12.094;2023-06-14T11:57:17;5.07;;;4.57;;
18286;SDS011;9269;50.838;12.094;2023-06-14T11:59:46;4.37;;;4.07;;
18286;SDS011;9269;50.838;12.094;2023-06-14T12:02:15;4.33;;;4.03;;
18286;SDS011;9269;50.838;12.094;2023-06-14T12:04:44;4.07;;;3.67;;
18286;SDS011;9269;50.838;12.094;2023-06-14T12:07:15;4.20;;;3.80;;
18286;SDS011;9269;50.838;12.094;2023-06-14T12:12:37;3.83;;;3.47;;
18286;SDS011;9269;50.838;12.094;2023-06-14T12:15:07;4.30;;;4.00;;
18286;SDS011;9269;50.838;12.094;2023-06-14T12:17:38;3.90;;;3.70;;
18286;SDS011;9269;50.838;12.094;2023-06-14T12:20:09;4.57;;;4.17;;
18286;SDS011;9269;50.838;12.094;2023-06-14T12:22:46;6.30;;;4.10;;
18286;SDS011;9269;50.838;12.094;2023-06-14T12:25:29;4.67;;;4.10;;
18286;SDS011;9269;50.838;12.094;2023-06-14T12:28:03;4.40;;;3.73;;
18286;SDS011;9269;50.838;12.094;2023-06-14T12:30:35;4.10;;;3.70;;
18286;SDS011;9269;50.838;12.094;2023-06-14T12:33:05;3.30;;;3.10;;
18286;SDS011;9269;50.838;12.094;2023-06-14T12:35:34;3.87;;;3.57;;
18286;SDS011;9269;50.838;12.094;2023-06-14T12:38:03;6.23;;;3.60;;
18286;SDS011;9269;50.838;12.094;2023-06-14T12:40:33;3.27;;;3.07;;
18286;SDS011;9269;50.838;12.094;2023-06-14T12:43:04;3.60;;;3.30;;
18286;SDS011;9269;50.838;12.094;2023-06-14T12:45:33;3.77;;;3.47;;
18286;SDS011;9269;50.838;12.094;2023-06-14T12:48:01;4.53;;;2.90;;
18286;SDS011;9269;50.838;12.094;2023-06-14T12:50:30;3.10;;;2.90;;
18286;SDS011;9269;50.838;12.094;2023-06-14T12:52:58;3.80;;;3.50;;
18286;SDS011;9269;50.838;12.094;2023-06-14T12:55:27;3.20;;;3.00;;
18286;SDS011;9269;50.838;12.094;2023-06-14T12:57:57;4.37;;;3.30;;
18286;SDS011;9269;50.838;12.094;2023-06-14T13:00:26;3.27;;;3.00;;
18286;SDS011;9269;50.838;12.094;2023-06-14T13:02:56;3.80;;;3.40;;
18286;SDS011;9269;50.838;12.094;2023-06-14T13:05:25;3.37;;;3.07;;
18286;SDS011;9269;50.838;12.094;2023-06-14T13:07:53;3.30;;;3.10;;
18286;SDS011;9269;50.838;12.094;2023-06-14T13:10:22;3.37;;;3.10;;
18286;SDS011;9269;50.838;12.094;2023-06-14T13:12:50;3.07;;;2.87;;
18286;SDS011;9269;50.838;12.094;2023-06-14T13:15:21;3.60;;;3.30;;
18286;SDS011;9269;50.838;12.094;2023-06-14T13:17:49;3.00;;;2.80;;
18286;SDS011;9269;50.838;12.094;2023-06-14T13:20:18;3.43;;;3.10;;
18286;SDS011;9269;50.838;12.094;2023-06-14T13:22:47;3.20;;;2.90;;
18286;SDS011;9269;50.838;12.094;2023-06-14T13:25:16;4.10;;;3.30;;
18286;SDS011;9269;50.838;12.094;2023-06-14T13:27:45;3.00;;;2.70;;
18286;SDS011;9269;50.838;12.094;2023-06-14T13:30:14;2.70;;;2.50;;
18286;SDS011;9269;50.838;12.094;2023-06-14T13:32:44;3.50;;;2.73;;
18286;SDS011;9269;50.838;12.094;2023-06-14T13:35:16;4.97;;;3.17;;
18286;SDS011;9269;50.838;12.094;2023-06-14T13:37:45;2.57;;;2.47;;
18286;SDS011;9269;50.838;12.094;2023-06-14T13:40:13;3.80;;;2.70;;
18286;SDS011;9269;50.838;12.094;2023-06-14T13:42:43;3.10;;;2.90;;
18286;SDS011;9269;50.838;12.094;2023-06-14T13:45:11;2.73;;;2.53;;
18286;SDS011;9269;50.838;12.094;2023-06-14T13:47:40;6.40;;;2.77;;
18286;SDS011;9269;50.838;12.094;2023-06-14T13:50:10;3.20;;;2.90;;
18286;SDS011;9269;50.838;12.094;2023-06-14T13:52:39;2.93;;;2.73;;
18286;SDS011;9269;50.838;12.094;2023-06-14T13:55:08;3.17;;;2.97;;
18286;SDS011;9269;50.838;12.094;2023-06-14T13:57:37;2.73;;;2.53;;
18286;SDS011;9269;50.838;12.094;2023-06-14T14:00:06;3.40;;;2.60;;
18286;SDS011;9269;50.838;12.094;2023-06-14T14:02:35;2.80;;;2.53;;
18286;SDS011;9269;50.838;12.094;2023-06-14T14:05:04;4.07;;;2.93;;
18286;SDS011;9269;50.838;12.094;2023-06-14T14:07:35;2.90;;;2.60;;
18286;SDS011;9269;50.838;12.094;2023-06-14T14:10:04;2.90;;;2.70;;
18286;SDS011;9269;50.838;12.094;2023-06-14T14:12:34;3.27;;;2.77;;
18286;SDS011;9269;50.838;12.094;2023-06-14T14:15:04;2.77;;;2.57;;
18286;SDS011;9269;50.838;12.094;2023-06-14T14:17:34;2.90;;;2.57;;
18286;SDS011;9269;50.838;12.094;2023-06-14T14:20:03;2.60;;;2.40;;
18286;SDS011;9269;50.838;12.094;2023-06-14T14:22:35;2.70;;;2.50;;
18286;SDS011;9269;50.838;12.094;2023-06-14T14:25:03;2.60;;;2.40;;
18286;SDS011;9269;50.838;12.094;2023-06-14T14:27:32;2.63;;;2.50;;
18286;SDS011;9269;50.838;12.094;2023-06-14T14:30:00;2.60;;;2.40;;
18286;SDS011;9269;50.838;12.094;2023-06-14T14:32:29;2.80;;;2.60;;
18286;SDS011;9269;50.838;12.094;2023-06-14T14:34:58;2.90;;;2.57;;
18286;SDS011;9269;50.838;12.094;2023-06-14T14:37:26;3.03;;;2.73;;
18286;SDS011;9269;50.838;12.094;2023-06-14T14:39:57;2.87;;;2.67;;
18286;SDS011;9269;50.838;12.094;2023-06-14T14:42:26;2.80;;;2.60;;
18286;SDS011;9269;50.838;12.094;2023-06-14T14:44:55;2.83;;;2.63;;
18286;SDS011;9269;50.838;12.094;2023-06-14T14:47:23;2.90;;;2.70;;
18286;SDS011;9269;50.838;12.094;2023-06-14T14:49:52;2.87;;;2.67;;
18286;SDS011;9269;50.838;12.094;2023-06-14T14:52:20;3.13;;;2.83;;
18286;SDS011;9269;50.838;12.094;2023-06-14T14:54:50;2.83;;;2.63;;
18286;SDS011;9269;50.838;12.094;2023-06-14T14:57:21;3.00;;;2.80;;
18286;SDS011;9269;50.838;12.094;2023-06-14T14:59:49;2.70;;;2.50;;
18286;SDS011;9269;50.838;12.094;2023-06-14T15:02:18;2.80;;;2.60;;
18286;SDS011;9269;50.838;12.094;2023-06-14T15:04:46;2.80;;;2.60;;
18286;SDS011;9269;50.838;12.094;2023-06-14T15:07:15;3.03;;;2.83;;
18286;SDS011;9269;50.838;12.094;2023-06-14T15:09:43;3.00;;;2.80;;